Posadas, Posadas Airport (SARP)

NamePosadas Airport
CityPosadas
CountryArgentina
ICAOSARP
IATAPSS
Altitude131 m
CoordinatesGoogle Map
Live Air TrafficLiveATC.net
METARSARP 251700Z 36006KT CAVOK 32/20 Q1015
2020-04-25 17:00:00 Wind: North (360°) 3.09 m/s - Visibility: > 10000 m - Weather: CAVOK - Temperature: 32 °C - Dew point: 20 °C - Humidity: 49% - Pressure: 1015 hPa

Sorry, no flights used the airport in this database.